sensor_id;sensor_type;location;lat;lon;timestamp;P1;durP1;ratioP1;P2;durP2;ratioP2
83634;SDS011;73596;49.482;11.238;2024-03-17T00:00:29;2.05;;;1.02;;
83634;SDS011;73596;49.482;11.238;2024-03-17T00:02:55;1.33;;;0.70;;
83634;SDS011;73596;49.482;11.238;2024-03-17T00:05:21;0.82;;;0.55;;
83634;SDS011;73596;49.482;11.238;2024-03-17T00:07:46;1.73;;;1.00;;
83634;SDS011;73596;49.482;11.238;2024-03-17T00:10:12;1.70;;;1.00;;
83634;SDS011;73596;49.482;11.238;2024-03-17T00:12:37;0.80;;;0.60;;
83634;SDS011;73596;49.482;11.238;2024-03-17T00:15:04;1.65;;;1.00;;
83634;SDS011;73596;49.482;11.238;2024-03-17T00:17:30;1.85;;;0.85;;
83634;SDS011;73596;49.482;11.238;2024-03-17T00:19:55;1.25;;;0.85;;
83634;SDS011;73596;49.482;11.238;2024-03-17T00:22:20;1.67;;;0.63;;
83634;SDS011;73596;49.482;11.238;2024-03-17T00:24:46;1.63;;;0.83;;
83634;SDS011;73596;49.482;11.238;2024-03-17T00:27:11;1.40;;;0.60;;
83634;SDS011;73596;49.482;11.238;2024-03-17T00:29:39;2.58;;;0.80;;
83634;SDS011;73596;49.482;11.238;2024-03-17T00:32:05;1.10;;;0.60;;
83634;SDS011;73596;49.482;11.238;2024-03-17T00:34:31;1.20;;;0.75;;
83634;SDS011;73596;49.482;11.238;2024-03-17T00:36:56;1.85;;;0.80;;
83634;SDS011;73596;49.482;11.238;2024-03-17T00:39:22;4.17;;;0.93;;
83634;SDS011;73596;49.482;11.238;2024-03-17T00:41:47;2.15;;;1.30;;
83634;SDS011;73596;49.482;11.238;2024-03-17T00:44:13;2.30;;;0.90;;
83634;SDS011;73596;49.482;11.238;2024-03-17T00:46:39;1.20;;;0.90;;
83634;SDS011;73596;49.482;11.238;2024-03-17T00:49:07;1.38;;;0.60;;
83634;SDS011;73596;49.482;11.238;2024-03-17T00:51:32;1.50;;;0.80;;
83634;SDS011;73596;49.482;11.238;2024-03-17T00:53:58;1.50;;;0.60;;
83634;SDS011;73596;49.482;11.238;2024-03-17T00:56:23;1.80;;;0.70;;
83634;SDS011;73596;49.482;11.238;2024-03-17T00:58:48;1.63;;;0.82;;
83634;SDS011;73596;49.482;11.238;2024-03-17T01:01:16;2.58;;;0.90;;
83634;SDS011;73596;49.482;11.238;2024-03-17T01:03:41;0.93;;;0.70;;
83634;SDS011;73596;49.482;11.238;2024-03-17T01:06:08;1.67;;;0.70;;
83634;SDS011;73596;49.482;11.238;2024-03-17T01:08:34;3.90;;;1.30;;
83634;SDS011;73596;49.482;11.238;2024-03-17T01:10:59;6.20;;;2.13;;
83634;SDS011;73596;49.482;11.238;2024-03-17T01:13:24;3.13;;;1.80;;
83634;SDS011;73596;49.482;11.238;2024-03-17T01:15:52;3.80;;;1.40;;
83634;SDS011;73596;49.482;11.238;2024-03-17T01:18:18;3.50;;;1.55;;
83634;SDS011;73596;49.482;11.238;2024-03-17T01:20:43;3.53;;;1.17;;
83634;SDS011;73596;49.482;11.238;2024-03-17T01:23:09;2.05;;;1.25;;
83634;SDS011;73596;49.482;11.238;2024-03-17T01:25:34;2.37;;;0.90;;
83634;SDS011;73596;49.482;11.238;2024-03-17T01:28:05;1.13;;;0.80;;
83634;SDS011;73596;49.482;11.238;2024-03-17T01:30:31;1.02;;;0.60;;
83634;SDS011;73596;49.482;11.238;2024-03-17T01:32:57;1.55;;;0.65;;
83634;SDS011;73596;49.482;11.238;2024-03-17T01:35:24;0.82;;;0.60;;
83634;SDS011;73596;49.482;11.238;2024-03-17T01:37:50;1.00;;;0.77;;
83634;SDS011;73596;49.482;11.238;2024-03-17T01:40:15;1.60;;;0.77;;
83634;SDS011;73596;49.482;11.238;2024-03-17T01:42:41;1.77;;;0.73;;
83634;SDS011;73596;49.482;11.238;2024-03-17T01:47:55;1.67;;;0.85;;
83634;SDS011;73596;49.482;11.238;2024-03-17T01:50:31;1.25;;;0.60;;
83634;SDS011;73596;49.482;11.238;2024-03-17T01:53:00;0.85;;;0.68;;
83634;SDS011;73596;49.482;11.238;2024-03-17T01:55:29;2.03;;;1.00;;
83634;SDS011;73596;49.482;11.238;2024-03-17T01:57:56;0.95;;;0.60;;
83634;SDS011;73596;49.482;11.238;2024-03-17T02:00:21;1.53;;;1.07;;
83634;SDS011;73596;49.482;11.238;2024-03-17T02:02:48;1.88;;;1.10;;
83634;SDS011;73596;49.482;11.238;2024-03-17T02:05:13;0.93;;;0.77;;
83634;SDS011;73596;49.482;11.238;2024-03-17T02:07:38;1.33;;;0.90;;
83634;SDS011;73596;49.482;11.238;2024-03-17T02:10:04;1.73;;;1.10;;
83634;SDS011;73596;49.482;11.238;2024-03-17T02:12:30;1.92;;;1.13;;
83634;SDS011;73596;49.482;11.238;2024-03-17T02:14:59;1.55;;;1.05;;
83634;SDS011;73596;49.482;11.238;2024-03-17T02:17:25;2.05;;;0.80;;
83634;SDS011;73596;49.482;11.238;2024-03-17T02:19:50;1.15;;;0.70;;
83634;SDS011;73596;49.482;11.238;2024-03-17T02:22:17;1.20;;;0.82;;
83634;SDS011;73596;49.482;11.238;2024-03-17T02:24:42;2.28;;;1.13;;
83634;SDS011;73596;49.482;11.238;2024-03-17T02:27:08;2.03;;;1.10;;
83634;SDS011;73596;49.482;11.238;2024-03-17T02:29:34;2.35;;;0.93;;
83634;SDS011;73596;49.482;11.238;2024-03-17T02:32:01;1.27;;;0.80;;
83634;SDS011;73596;49.482;11.238;2024-03-17T02:34:31;2.17;;;0.95;;
83634;SDS011;73596;49.482;11.238;2024-03-17T02:36:57;1.83;;;1.08;;
83634;SDS011;73596;49.482;11.238;2024-03-17T02:39:22;1.13;;;0.80;;
83634;SDS011;73596;49.482;11.238;2024-03-17T02:41:59;0.95;;;0.68;;
83634;SDS011;73596;49.482;11.238;2024-03-17T02:44:25;0.70;;;0.45;;
83634;SDS011;73596;49.482;11.238;2024-03-17T02:46:50;1.00;;;0.65;;
83634;SDS011;73596;49.482;11.238;2024-03-17T02:49:15;1.07;;;0.70;;
83634;SDS011;73596;49.482;11.238;2024-03-17T02:51:43;1.52;;;0.90;;
83634;SDS011;73596;49.482;11.238;2024-03-17T02:54:08;1.10;;;0.75;;
83634;SDS011;73596;49.482;11.238;2024-03-17T02:56:34;0.70;;;0.50;;
83634;SDS011;73596;49.482;11.238;2024-03-17T02:58:59;0.50;;;0.50;;
83634;SDS011;73596;49.482;11.238;2024-03-17T03:01:25;0.80;;;0.52;;
83634;SDS011;73596;49.482;11.238;2024-03-17T03:03:50;1.10;;;0.60;;
83634;SDS011;73596;49.482;11.238;2024-03-17T03:06:16;1.35;;;0.77;;
83634;SDS011;73596;49.482;11.238;2024-03-17T03:08:44;1.20;;;0.60;;
83634;SDS011;73596;49.482;11.238;2024-03-17T03:11:13;1.23;;;0.68;;
83634;SDS011;73596;49.482;11.238;2024-03-17T03:13:39;0.68;;;0.52;;
83634;SDS011;73596;49.482;11.238;2024-03-17T03:16:09;0.70;;;0.52;;
83634;SDS011;73596;49.482;11.238;2024-03-17T03:18:36;1.15;;;0.70;;
83634;SDS011;73596;49.482;11.238;2024-03-17T03:21:03;1.48;;;0.50;;
83634;SDS011;73596;49.482;11.238;2024-03-17T03:23:28;1.23;;;0.77;;
83634;SDS011;73596;49.482;11.238;2024-03-17T03:25:55;1.55;;;0.80;;
83634;SDS011;73596;49.482;11.238;2024-03-17T03:28:24;2.17;;;0.73;;
83634;SDS011;73596;49.482;11.238;2024-03-17T03:30:50;0.98;;;0.57;;
83634;SDS011;73596;49.482;11.238;2024-03-17T03:33:19;0.93;;;0.60;;
83634;SDS011;73596;49.482;11.238;2024-03-17T03:35:45;1.05;;;0.80;;
83634;SDS011;73596;49.482;11.238;2024-03-17T03:38:10;1.52;;;0.70;;
83634;SDS011;73596;49.482;11.238;2024-03-17T03:40:36;1.50;;;1.00;;
83634;SDS011;73596;49.482;11.238;2024-03-17T03:43:02;2.60;;;0.80;;
83634;SDS011;73596;49.482;11.238;2024-03-17T03:45:27;1.42;;;0.85;;
83634;SDS011;73596;49.482;11.238;2024-03-17T03:47:52;0.80;;;0.70;;
83634;SDS011;73596;49.482;11.238;2024-03-17T03:50:19;2.03;;;0.90;;
83634;SDS011;73596;49.482;11.238;2024-03-17T03:52:46;1.92;;;0.75;;
83634;SDS011;73596;49.482;11.238;2024-03-17T03:55:11;0.82;;;0.55;;
83634;SDS011;73596;49.482;11.238;2024-03-17T03:57:41;1.58;;;1.13;;
83634;SDS011;73596;49.482;11.238;2024-03-17T04:00:07;2.83;;;1.20;;
83634;SDS011;73596;49.482;11.238;2024-03-17T04:02:39;2.15;;;1.10;;
83634;SDS011;73596;49.482;11.238;2024-03-17T04:05:05;3.05;;;1.50;;
83634;SDS011;73596;49.482;11.238;2024-03-17T04:07:31;2.90;;;1.08;;
83634;SDS011;73596;49.482;11.238;2024-03-17T04:09:56;1.85;;;0.90;;
83634;SDS011;73596;49.482;11.238;2024-03-17T04:12:22;0.82;;;0.68;;
83634;SDS011;73596;49.482;11.238;2024-03-17T04:14:49;3.10;;;0.90;;
83634;SDS011;73596;49.482;11.238;2024-03-17T04:17:19;0.90;;;0.80;;
83634;SDS011;73596;49.482;11.238;2024-03-17T04:19:46;1.00;;;0.60;;
83634;SDS011;73596;49.482;11.238;2024-03-17T04:22:15;2.45;;;0.95;;
83634;SDS011;73596;49.482;11.238;2024-03-17T04:24:42;2.83;;;0.98;;
83634;SDS011;73596;49.482;11.238;2024-03-17T04:29:43;2.10;;;0.80;;
83634;SDS011;73596;49.482;11.238;2024-03-17T04:32:12;1.42;;;0.95;;
83634;SDS011;73596;49.482;11.238;2024-03-17T04:34:38;1.30;;;0.80;;
83634;SDS011;73596;49.482;11.238;2024-03-17T04:37:03;1.60;;;0.90;;
83634;SDS011;73596;49.482;11.238;2024-03-17T04:39:28;2.40;;;1.00;;
83634;SDS011;73596;49.482;11.238;2024-03-17T04:41:54;3.20;;;1.20;;
83634;SDS011;73596;49.482;11.238;2024-03-17T04:44:19;1.33;;;0.90;;
83634;SDS011;73596;49.482;11.238;2024-03-17T04:46:44;2.60;;;0.93;;
83634;SDS011;73596;49.482;11.238;2024-03-17T04:49:09;1.03;;;0.77;;
83634;SDS011;73596;49.482;11.238;2024-03-17T04:51:35;1.30;;;1.07;;
83634;SDS011;73596;49.482;11.238;2024-03-17T04:54:00;1.48;;;1.23;;
83634;SDS011;73596;49.482;11.238;2024-03-17T04:56:28;0.93;;;0.70;;
83634;SDS011;73596;49.482;11.238;2024-03-17T04:58:54;1.10;;;0.70;;
83634;SDS011;73596;49.482;11.238;2024-03-17T05:01:19;1.13;;;0.80;;
83634;SDS011;73596;49.482;11.238;2024-03-17T05:03:45;1.92;;;0.90;;
83634;SDS011;73596;49.482;11.238;2024-03-17T05:06:10;1.73;;;1.10;;
83634;SDS011;73596;49.482;11.238;2024-03-17T05:08:35;4.40;;;1.10;;
83634;SDS011;73596;49.482;11.238;2024-03-17T05:11:04;1.73;;;1.23;;
83634;SDS011;73596;49.482;11.238;2024-03-17T05:13:34;1.58;;;0.98;;
83634;SDS011;73596;49.482;11.238;2024-03-17T05:16:00;2.42;;;1.00;;
83634;SDS011;73596;49.482;11.238;2024-03-17T05:18:26;2.92;;;1.20;;
83634;SDS011;73596;49.482;11.238;2024-03-17T05:21:04;2.10;;;1.00;;
83634;SDS011;73596;49.482;11.238;2024-03-17T05:23:31;2.80;;;1.15;;
83634;SDS011;73596;49.482;11.238;2024-03-17T05:25:58;2.00;;;1.05;;
83634;SDS011;73596;49.482;11.238;2024-03-17T05:28:24;1.67;;;0.93;;
83634;SDS011;73596;49.482;11.238;2024-03-17T05:30:50;2.47;;;1.20;;
83634;SDS011;73596;49.482;11.238;2024-03-17T05:33:16;2.45;;;0.90;;
83634;SDS011;73596;49.482;11.238;2024-03-17T05:35:52;1.67;;;1.33;;
83634;SDS011;73596;49.482;11.238;2024-03-17T05:38:22;1.33;;;0.85;;
83634;SDS011;73596;49.482;11.238;2024-03-17T05:43:27;1.65;;;1.13;;
83634;SDS011;73596;49.482;11.238;2024-03-17T05:45:54;3.10;;;1.90;;
83634;SDS011;73596;49.482;11.238;2024-03-17T05:48:23;1.98;;;1.35;;
83634;SDS011;73596;49.482;11.238;2024-03-17T05:50:49;1.52;;;0.90;;
83634;SDS011;73596;49.482;11.238;2024-03-17T05:53:16;3.13;;;1.05;;
83634;SDS011;73596;49.482;11.238;2024-03-17T05:55:42;1.73;;;1.15;;
83634;SDS011;73596;49.482;11.238;2024-03-17T05:58:08;1.35;;;0.80;;
83634;SDS011;73596;49.482;11.238;2024-03-17T06:00:35;1.13;;;0.85;;
83634;SDS011;73596;49.482;11.238;2024-03-17T06:03:00;1.55;;;1.00;;
83634;SDS011;73596;49.482;11.238;2024-03-17T06:05:26;1.33;;;0.80;;
83634;SDS011;73596;49.482;11.238;2024-03-17T06:07:51;1.27;;;0.85;;
83634;SDS011;73596;49.482;11.238;2024-03-17T06:10:17;1.13;;;0.70;;
83634;SDS011;73596;49.482;11.238;2024-03-17T06:12:42;1.73;;;0.60;;
83634;SDS011;73596;49.482;11.238;2024-03-17T06:15:07;1.23;;;1.07;;
83634;SDS011;73596;49.482;11.238;2024-03-17T06:17:33;1.35;;;0.90;;
83634;SDS011;73596;49.482;11.238;2024-03-17T06:19:58;1.27;;;0.90;;
83634;SDS011;73596;49.482;11.238;2024-03-17T06:22:27;3.97;;;1.23;;
83634;SDS011;73596;49.482;11.238;2024-03-17T06:24:52;2.60;;;1.33;;
83634;SDS011;73596;49.482;11.238;2024-03-17T06:27:17;1.93;;;0.97;;
83634;SDS011;73596;49.482;11.238;2024-03-17T06:29:42;2.37;;;1.00;;
83634;SDS011;73596;49.482;11.238;2024-03-17T06:32:08;2.47;;;1.30;;
83634;SDS011;73596;49.482;11.238;2024-03-17T06:34:33;2.42;;;1.60;;
83634;SDS011;73596;49.482;11.238;2024-03-17T06:36:59;2.17;;;1.10;;
83634;SDS011;73596;49.482;11.238;2024-03-17T06:39:25;1.65;;;0.73;;
83634;SDS011;73596;49.482;11.238;2024-03-17T06:41:51;1.50;;;0.98;;
83634;SDS011;73596;49.482;11.238;2024-03-17T06:44:16;2.35;;;1.23;;
83634;SDS011;73596;49.482;11.238;2024-03-17T06:46:41;2.33;;;0.90;;
83634;SDS011;73596;49.482;11.238;2024-03-17T06:49:07;0.90;;;0.57;;
83634;SDS011;73596;49.482;11.238;2024-03-17T06:51:33;2.22;;;0.82;;
83634;SDS011;73596;49.482;11.238;2024-03-17T06:53:59;1.63;;;1.13;;
83634;SDS011;73596;49.482;11.238;2024-03-17T06:56:24;3.63;;;1.17;;
83634;SDS011;73596;49.482;11.238;2024-03-17T06:58:50;2.03;;;0.93;;
83634;SDS011;73596;49.482;11.238;2024-03-17T07:01:17;0.80;;;0.57;;
83634;SDS011;73596;49.482;11.238;2024-03-17T07:03:42;1.10;;;0.70;;
83634;SDS011;73596;49.482;11.238;2024-03-17T07:06:08;1.35;;;0.70;;
83634;SDS011;73596;49.482;11.238;2024-03-17T07:08:34;1.65;;;1.10;;
83634;SDS011;73596;49.482;11.238;2024-03-17T07:13:29;2.72;;;1.40;;
83634;SDS011;73596;49.482;11.238;2024-03-17T07:15:55;1.55;;;0.80;;
83634;SDS011;73596;49.482;11.238;2024-03-17T07:18:22;2.05;;;0.90;;
83634;SDS011;73596;49.482;11.238;2024-03-17T07:20:50;3.55;;;1.13;;
83634;SDS011;73596;49.482;11.238;2024-03-17T07:23:16;1.77;;;1.10;;
83634;SDS011;73596;49.482;11.238;2024-03-17T07:25:42;1.73;;;0.98;;
83634;SDS011;73596;49.482;11.238;2024-03-17T07:28:08;1.50;;;1.05;;
83634;SDS011;73596;49.482;11.238;2024-03-17T07:30:34;2.65;;;1.52;;
83634;SDS011;73596;49.482;11.238;2024-03-17T07:33:00;2.70;;;1.45;;
83634;SDS011;73596;49.482;11.238;2024-03-17T07:35:26;1.20;;;0.98;;
83634;SDS011;73596;49.482;11.238;2024-03-17T07:37:51;1.85;;;0.90;;
83634;SDS011;73596;49.482;11.238;2024-03-17T07:40:17;2.67;;;1.23;;
83634;SDS011;73596;49.482;11.238;2024-03-17T07:42:42;2.13;;;1.10;;
83634;SDS011;73596;49.482;11.238;2024-03-17T07:45:07;3.03;;;1.03;;
83634;SDS011;73596;49.482;11.238;2024-03-17T07:47:33;2.63;;;1.38;;
83634;SDS011;73596;49.482;11.238;2024-03-17T07:50:04;1.35;;;1.00;;
83634;SDS011;73596;49.482;11.238;2024-03-17T07:52:30;3.05;;;1.00;;
83634;SDS011;73596;49.482;11.238;2024-03-17T07:54:56;3.35;;;1.40;;
83634;SDS011;73596;49.482;11.238;2024-03-17T07:57:23;1.45;;;0.82;;
83634;SDS011;73596;49.482;11.238;2024-03-17T07:59:51;2.15;;;1.30;;
83634;SDS011;73596;49.482;11.238;2024-03-17T08:02:17;2.85;;;1.60;;
83634;SDS011;73596;49.482;11.238;2024-03-17T08:04:42;3.42;;;1.25;;
83634;SDS011;73596;49.482;11.238;2024-03-17T08:07:10;2.95;;;1.05;;
83634;SDS011;73596;49.482;11.238;2024-03-17T08:09:36;1.40;;;0.88;;
83634;SDS011;73596;49.482;11.238;2024-03-17T08:12:02;2.55;;;1.15;;
83634;SDS011;73596;49.482;11.238;2024-03-17T08:14:30;2.97;;;1.30;;
83634;SDS011;73596;49.482;11.238;2024-03-17T08:16:55;2.53;;;1.23;;
83634;SDS011;73596;49.482;11.238;2024-03-17T08:19:21;1.75;;;1.38;;
83634;SDS011;73596;49.482;11.238;2024-03-17T08:21:46;5.03;;;1.83;;
83634;SDS011;73596;49.482;11.238;2024-03-17T08:24:12;3.47;;;1.63;;
83634;SDS011;73596;49.482;11.238;2024-03-17T08:26:38;2.75;;;1.45;;
83634;SDS011;73596;49.482;11.238;2024-03-17T08:29:05;2.30;;;1.52;;
83634;SDS011;73596;49.482;11.238;2024-03-17T08:31:30;2.73;;;1.63;;
83634;SDS011;73596;49.482;11.238;2024-03-17T08:33:55;3.13;;;1.47;;
83634;SDS011;73596;49.482;11.238;2024-03-17T08:36:20;4.63;;;1.87;;
83634;SDS011;73596;49.482;11.238;2024-03-17T08:38:46;4.43;;;1.53;;
83634;SDS011;73596;49.482;11.238;2024-03-17T08:41:12;3.72;;;1.60;;
83634;SDS011;73596;49.482;11.238;2024-03-17T08:43:38;2.40;;;1.52;;
83634;SDS011;73596;49.482;11.238;2024-03-17T08:46:06;5.82;;;2.47;;
83634;SDS011;73596;49.482;11.238;2024-03-17T08:48:33;2.50;;;1.63;;
83634;SDS011;73596;49.482;11.238;2024-03-17T08:51:00;3.42;;;1.90;;
83634;SDS011;73596;49.482;11.238;2024-03-17T08:53:26;2.60;;;1.85;;
83634;SDS011;73596;49.482;11.238;2024-03-17T08:55:53;4.68;;;1.77;;
83634;SDS011;73596;49.482;11.238;2024-03-17T08:58:18;4.28;;;1.90;;
83634;SDS011;73596;49.482;11.238;2024-03-17T09:00:44;4.20;;;1.80;;
83634;SDS011;73596;49.482;11.238;2024-03-17T09:03:10;4.03;;;1.70;;
83634;SDS011;73596;49.482;11.238;2024-03-17T09:05:37;5.97;;;2.08;;
83634;SDS011;73596;49.482;11.238;2024-03-17T09:08:03;4.53;;;2.00;;
83634;SDS011;73596;49.482;11.238;2024-03-17T09:10:29;3.50;;;2.10;;
83634;SDS011;73596;49.482;11.238;2024-03-17T09:12:54;3.75;;;1.60;;
83634;SDS011;73596;49.482;11.238;2024-03-17T09:15:19;2.88;;;1.48;;
83634;SDS011;73596;49.482;11.238;2024-03-17T09:17:45;2.65;;;1.67;;
83634;SDS011;73596;49.482;11.238;2024-03-17T09:20:12;3.97;;;1.90;;
83634;SDS011;73596;49.482;11.238;2024-03-17T09:22:38;3.28;;;1.77;;
83634;SDS011;73596;49.482;11.238;2024-03-17T09:25:07;3.95;;;2.25;;
83634;SDS011;73596;49.482;11.238;2024-03-17T09:27:33;2.10;;;1.52;;
83634;SDS011;73596;49.482;11.238;2024-03-17T09:29:59;4.35;;;1.40;;
83634;SDS011;73596;49.482;11.238;2024-03-17T09:32:25;3.55;;;1.83;;
83634;SDS011;73596;49.482;11.238;2024-03-17T09:34:50;3.37;;;2.13;;
83634;SDS011;73596;49.482;11.238;2024-03-17T09:37:15;2.37;;;1.20;;
83634;SDS011;73596;49.482;11.238;2024-03-17T09:39:41;3.33;;;1.85;;
83634;SDS011;73596;49.482;11.238;2024-03-17T09:42:08;1.50;;;1.02;;
83634;SDS011;73596;49.482;11.238;2024-03-17T09:44:43;2.20;;;1.08;;
83634;SDS011;73596;49.482;11.238;2024-03-17T09:47:10;2.20;;;1.55;;
83634;SDS011;73596;49.482;11.238;2024-03-17T09:49:43;2.10;;;1.30;;
83634;SDS011;73596;49.482;11.238;2024-03-17T09:52:09;2.13;;;1.37;;
83634;SDS011;73596;49.482;11.238;2024-03-17T09:54:45;3.63;;;2.10;;
83634;SDS011;73596;49.482;11.238;2024-03-17T09:57:14;2.67;;;1.33;;
83634;SDS011;73596;49.482;11.238;2024-03-17T09:59:42;3.58;;;1.80;;
83634;SDS011;73596;49.482;11.238;2024-03-17T10:02:13;2.85;;;1.20;;
83634;SDS011;73596;49.482;11.238;2024-03-17T10:04:43;3.67;;;1.88;;
83634;SDS011;73596;49.482;11.238;2024-03-17T10:07:08;2.50;;;1.63;;
83634;SDS011;73596;49.482;11.238;2024-03-17T10:09:33;2.55;;;1.42;;
83634;SDS011;73596;49.482;11.238;2024-03-17T10:11:59;3.27;;;1.80;;
83634;SDS011;73596;49.482;11.238;2024-03-17T10:14:24;2.13;;;1.05;;
83634;SDS011;73596;49.482;11.238;2024-03-17T10:16:49;3.00;;;1.77;;
83634;SDS011;73596;49.482;11.238;2024-03-17T10:19:25;3.45;;;1.73;;
83634;SDS011;73596;49.482;11.238;2024-03-17T10:21:58;4.15;;;1.83;;
83634;SDS011;73596;49.482;11.238;2024-03-17T10:24:25;3.67;;;1.52;;
83634;SDS011;73596;49.482;11.238;2024-03-17T10:26:54;3.63;;;1.70;;
83634;SDS011;73596;49.482;11.238;2024-03-17T10:29:24;4.18;;;2.00;;
83634;SDS011;73596;49.482;11.238;2024-03-17T10:31:54;2.60;;;1.63;;
83634;SDS011;73596;49.482;11.238;2024-03-17T10:34:21;2.78;;;1.60;;
83634;SDS011;73596;49.482;11.238;2024-03-17T10:36:49;3.90;;;1.80;;
83634;SDS011;73596;49.482;11.238;2024-03-17T10:39:27;2.65;;;1.83;;
83634;SDS011;73596;49.482;11.238;2024-03-17T10:42:01;3.08;;;1.58;;
83634;SDS011;73596;49.482;11.238;2024-03-17T10:44:29;3.35;;;1.70;;
83634;SDS011;73596;49.482;11.238;2024-03-17T10:46:55;3.10;;;1.48;;
83634;SDS011;73596;49.482;11.238;2024-03-17T10:49:32;2.20;;;1.30;;
83634;SDS011;73596;49.482;11.238;2024-03-17T10:52:00;1.85;;;1.23;;
83634;SDS011;73596;49.482;11.238;2024-03-17T10:54:27;3.65;;;1.52;;
83634;SDS011;73596;49.482;11.238;2024-03-17T10:56:56;2.33;;;1.33;;
83634;SDS011;73596;49.482;11.238;2024-03-17T10:59:37;2.72;;;1.25;;
83634;SDS011;73596;49.482;11.238;2024-03-17T11:02:12;2.33;;;1.42;;
83634;SDS011;73596;49.482;11.238;2024-03-17T11:04:40;2.03;;;1.58;;
83634;SDS011;73596;49.482;11.238;2024-03-17T11:07:07;2.10;;;1.25;;
83634;SDS011;73596;49.482;11.238;2024-03-17T11:09:42;2.60;;;1.20;;
83634;SDS011;73596;49.482;11.238;2024-03-17T11:17:43;3.55;;;2.00;;
83634;SDS011;73596;49.482;11.238;2024-03-17T11:20:25;2.72;;;1.83;;
83634;SDS011;73596;49.482;11.238;2024-03-17T11:22:54;4.07;;;1.90;;
83634;SDS011;73596;49.482;11.238;2024-03-17T11:28:04;2.58;;;1.77;;
83634;SDS011;73596;49.482;11.238;2024-03-17T11:46:53;2.90;;;1.80;;
83634;SDS011;73596;49.482;11.238;2024-03-17T11:49:23;3.47;;;1.95;;
83634;SDS011;73596;49.482;11.238;2024-03-17T11:51:52;2.90;;;1.35;;
83634;SDS011;73596;49.482;11.238;2024-03-17T11:54:20;5.72;;;2.10;;
83634;SDS011;73596;49.482;11.238;2024-03-17T11:56:48;3.33;;;2.20;;
83634;SDS011;73596;49.482;11.238;2024-03-17T11:59:14;4.68;;;2.78;;
83634;SDS011;73596;49.482;11.238;2024-03-17T12:01:43;4.05;;;2.30;;
83634;SDS011;73596;49.482;11.238;2024-03-17T12:04:09;4.05;;;2.20;;
83634;SDS011;73596;49.482;11.238;2024-03-17T12:06:34;6.68;;;1.90;;
83634;SDS011;73596;49.482;11.238;2024-03-17T12:09:08;4.28;;;2.00;;
83634;SDS011;73596;49.482;11.238;2024-03-17T12:11:42;5.15;;;2.03;;
83634;SDS011;73596;49.482;11.238;2024-03-17T12:14:14;5.33;;;2.23;;
83634;SDS011;73596;49.482;11.238;2024-03-17T12:16:48;5.53;;;2.08;;
83634;SDS011;73596;49.482;11.238;2024-03-17T12:19:15;6.57;;;2.47;;
83634;SDS011;73596;49.482;11.238;2024-03-17T12:22:01;5.13;;;2.55;;
83634;SDS011;73596;49.482;11.238;2024-03-17T12:24:28;4.75;;;2.15;;
83634;SDS011;73596;49.482;11.238;2024-03-17T12:26:55;6.47;;;2.70;;
83634;SDS011;73596;49.482;11.238;2024-03-17T12:29:25;4.65;;;2.60;;
83634;SDS011;73596;49.482;11.238;2024-03-17T12:32:04;5.70;;;3.03;;
83634;SDS011;73596;49.482;11.238;2024-03-17T12:34:31;4.15;;;2.60;;
83634;SDS011;73596;49.482;11.238;2024-03-17T12:36:59;4.28;;;2.55;;
83634;SDS011;73596;49.482;11.238;2024-03-17T12:39:26;3.90;;;2.28;;
83634;SDS011;73596;49.482;11.238;2024-03-17T12:42:03;3.17;;;2.35;;
83634;SDS011;73596;49.482;11.238;2024-03-17T12:44:51;2.63;;;1.58;;
83634;SDS011;73596;49.482;11.238;2024-03-17T12:47:20;3.80;;;2.40;;
83634;SDS011;73596;49.482;11.238;2024-03-17T12:52:31;4.47;;;1.83;;
83634;SDS011;73596;49.482;11.238;2024-03-17T12:55:08;3.70;;;2.30;;
83634;SDS011;73596;49.482;11.238;2024-03-17T13:01:01;5.85;;;2.83;;
83634;SDS011;73596;49.482;11.238;2024-03-17T13:03:29;3.55;;;2.28;;
83634;SDS011;73596;49.482;11.238;2024-03-17T13:05:57;5.43;;;2.30;;
83634;SDS011;73596;49.482;11.238;2024-03-17T13:08:22;4.50;;;2.73;;
83634;SDS011;73596;49.482;11.238;2024-03-17T13:10:48;4.40;;;2.53;;
83634;SDS011;73596;49.482;11.238;2024-03-17T13:13:13;4.82;;;2.95;;
83634;SDS011;73596;49.482;11.238;2024-03-17T13:15:41;7.60;;;3.13;;
83634;SDS011;73596;49.482;11.238;2024-03-17T13:18:07;5.38;;;2.92;;
83634;SDS011;73596;49.482;11.238;2024-03-17T13:20:33;3.00;;;2.13;;
83634;SDS011;73596;49.482;11.238;2024-03-17T13:22:59;4.00;;;2.38;;
83634;SDS011;73596;49.482;11.238;2024-03-17T13:25:25;4.45;;;2.88;;
83634;SDS011;73596;49.482;11.238;2024-03-17T13:27:54;4.10;;;2.45;;
83634;SDS011;73596;49.482;11.238;2024-03-17T13:30:21;5.18;;;3.20;;
83634;SDS011;73596;49.482;11.238;2024-03-17T13:32:49;4.57;;;2.70;;
83634;SDS011;73596;49.482;11.238;2024-03-17T13:35:20;5.15;;;2.90;;
83634;SDS011;73596;49.482;11.238;2024-03-17T13:37:47;6.85;;;3.03;;
83634;SDS011;73596;49.482;11.238;2024-03-17T13:40:14;3.42;;;2.13;;
83634;SDS011;73596;49.482;11.238;2024-03-17T13:42:51;5.47;;;2.35;;
83634;SDS011;73596;49.482;11.238;2024-03-17T13:45:19;5.53;;;2.63;;
83634;SDS011;73596;49.482;11.238;2024-03-17T13:47:49;5.15;;;2.83;;
83634;SDS011;73596;49.482;11.238;2024-03-17T13:50:17;4.88;;;2.20;;
83634;SDS011;73596;49.482;11.238;2024-03-17T13:52:43;4.85;;;2.75;;
83634;SDS011;73596;49.482;11.238;2024-03-17T13:55:16;6.13;;;3.35;;
83634;SDS011;73596;49.482;11.238;2024-03-17T13:57:43;5.85;;;2.95;;
83634;SDS011;73596;49.482;11.238;2024-03-17T14:00:10;5.25;;;2.58;;
83634;SDS011;73596;49.482;11.238;2024-03-17T14:02:40;5.15;;;2.95;;
83634;SDS011;73596;49.482;11.238;2024-03-17T14:05:06;4.85;;;2.28;;
83634;SDS011;73596;49.482;11.238;2024-03-17T14:07:32;4.32;;;1.80;;
83634;SDS011;73596;49.482;11.238;2024-03-17T14:09:59;4.15;;;2.38;;
83634;SDS011;73596;49.482;11.238;2024-03-17T14:12:24;3.50;;;2.10;;
83634;SDS011;73596;49.482;11.238;2024-03-17T14:14:51;4.65;;;2.58;;
83634;SDS011;73596;49.482;11.238;2024-03-17T14:17:16;5.70;;;3.05;;
83634;SDS011;73596;49.482;11.238;2024-03-17T14:19:41;6.63;;;3.50;;
83634;SDS011;73596;49.482;11.238;2024-03-17T14:22:07;3.47;;;2.30;;
83634;SDS011;73596;49.482;11.238;2024-03-17T14:24:32;3.30;;;1.93;;
83634;SDS011;73596;49.482;11.238;2024-03-17T14:26:59;4.03;;;2.55;;
83634;SDS011;73596;49.482;11.238;2024-03-17T14:29:26;3.03;;;1.83;;
83634;SDS011;73596;49.482;11.238;2024-03-17T14:31:51;7.93;;;2.70;;
83634;SDS011;73596;49.482;11.238;2024-03-17T14:34:16;5.97;;;2.93;;
83634;SDS011;73596;49.482;11.238;2024-03-17T14:36:42;5.13;;;2.72;;
83634;SDS011;73596;49.482;11.238;2024-03-17T14:39:10;7.40;;;3.28;;
83634;SDS011;73596;49.482;11.238;2024-03-17T14:41:37;4.50;;;2.72;;
83634;SDS011;73596;49.482;11.238;2024-03-17T14:44:08;4.68;;;2.55;;
83634;SDS011;73596;49.482;11.238;2024-03-17T14:46:33;4.13;;;2.20;;
83634;SDS011;73596;49.482;11.238;2024-03-17T14:48:58;3.40;;;2.27;;
83634;SDS011;73596;49.482;11.238;2024-03-17T14:51:24;5.13;;;2.78;;
83634;SDS011;73596;49.482;11.238;2024-03-17T14:53:49;5.00;;;2.40;;
83634;SDS011;73596;49.482;11.238;2024-03-17T14:56:16;3.97;;;2.70;;
83634;SDS011;73596;49.482;11.238;2024-03-17T14:58:43;4.25;;;2.40;;
83634;SDS011;73596;49.482;11.238;2024-03-17T15:01:10;5.85;;;2.38;;
83634;SDS011;73596;49.482;11.238;2024-03-17T15:03:36;4.68;;;2.58;;
83634;SDS011;73596;49.482;11.238;2024-03-17T15:06:02;3.20;;;1.67;;
83634;SDS011;73596;49.482;11.238;2024-03-17T15:08:31;3.47;;;2.28;;
83634;SDS011;73596;49.482;11.238;2024-03-17T15:10:58;3.35;;;1.70;;
83634;SDS011;73596;49.482;11.238;2024-03-17T15:13:24;4.43;;;1.90;;